Time;durP1;ratioP1;P1;durP2;ratioP2;P2;SDS_P1;SDS_P2;PMS_P1;PMS_P2;Temp;Humidity;BMP_temperature;BMP_pressure;BME280_temperature;BME280_humidity;BME280_pressure;Samples;Min_cycle;Max_cycle;Signal;HPM_P1;HPM_P2
2023/12/09 00:00:10;;;;;;;44.72;15.40;;;;;;;-148.88;100.00;-17125.47;5075325;28;20443;-84
2023/12/09 00:02:35;;;;;;;34.05;12.93;;;;;;;-148.88;100.00;-17125.47;5075092;28;20025;-84
2023/12/09 00:05:02;;;;;;;38.78;13.77;;;;;;;-148.88;100.00;-17125.47;5074817;28;20021;-85
2023/12/09 00:07:28;;;;;;;32.20;12.93;;;;;;;-148.88;100.00;-17125.47;5075132;28;20078;-85
2023/12/09 00:09:53;;;;;;;40.25;14.48;;;;;;;-148.88;100.00;-17125.47;5074333;28;20032;-85
2023/12/09 00:12:18;;;;;;;40.85;13.52;;;;;;;-148.88;100.00;-17125.47;5075234;28;20051;-85
2023/12/09 00:14:44;;;;;;;35.15;12.25;;;;;;;-148.88;100.00;-17125.47;5073731;28;20467;-83
2023/12/09 00:17:09;;;;;;;35.38;13.55;;;;;;;-148.88;100.00;-17125.47;5074549;28;20479;-85
2023/12/09 00:19:35;;;;;;;35.75;13.70;;;;;;;-148.88;100.00;-17125.47;5074268;28;20031;-85
2023/12/09 00:22:00;;;;;;;32.95;12.23;;;;;;;-148.88;100.00;-17125.47;5074806;28;20032;-84
2023/12/09 00:24:26;;;;;;;32.28;13.20;;;;;;;-148.88;100.00;-17125.47;5073844;28;20031;-85
2023/12/09 00:26:51;;;;;;;30.52;12.05;;;;;;;-148.88;100.00;-17125.47;5074908;28;20059;-85
2023/12/09 00:29:17;;;;;;;31.60;12.40;;;;;;;-148.88;100.00;-17125.47;5074755;28;20443;-86
2023/12/09 00:31:42;;;;;;;29.27;11.95;;;;;;;-148.88;100.00;-17125.47;5074974;28;20029;-86
2023/12/09 00:34:07;;;;;;;31.63;12.27;;;;;;;-148.88;100.00;-17125.47;5074228;28;20023;-85
2023/12/09 00:36:33;;;;;;;28.55;11.80;;;;;;;-148.88;100.00;-17125.47;5073125;28;20033;-85
2023/12/09 00:38:58;;;;;;;29.42;11.38;;;;;;;-148.88;100.00;-17125.47;5074317;28;20562;-85
2023/12/09 00:41:24;;;;;;;38.75;11.55;;;;;;;-148.88;100.00;-17125.47;5074668;28;20069;-85
2023/12/09 00:43:50;;;;;;;28.77;11.40;;;;;;;-148.88;100.00;-17125.47;5074211;28;20395;-85
2023/12/09 00:46:15;;;;;;;26.85;10.30;;;;;;;-148.88;100.00;-17125.47;5072629;28;20021;-84
2023/12/09 00:48:40;;;;;;;22.80;9.68;;;;;;;-148.88;100.00;-17125.47;5074281;28;20020;-86
2023/12/09 00:51:06;;;;;;;36.92;10.35;;;;;;;-148.88;100.00;-17125.47;5074311;28;20032;-84
2023/12/09 00:53:31;;;;;;;26.60;10.27;;;;;;;-148.88;100.00;-17125.47;5074022;28;20024;-85
2023/12/09 00:55:57;;;;;;;29.92;11.88;;;;;;;-148.88;100.00;-17125.47;5073962;28;20128;-86
2023/12/09 00:58:22;;;;;;;27.55;10.40;;;;;;;-148.88;100.00;-17125.47;5073914;28;20024;-85
2023/12/09 01:00:47;;;;;;;24.45;9.43;;;;;;;-148.88;100.00;-17125.47;5074059;28;20021;-85
2023/12/09 01:03:13;;;;;;;28.05;12.05;;;;;;;-148.88;100.00;-17125.47;5074286;28;20505;-86
2023/12/09 01:05:38;;;;;;;27.65;9.35;;;;;;;-148.88;100.00;-17125.47;5074625;28;20020;-87
2023/12/09 01:08:03;;;;;;;25.20;10.15;;;;;;;-148.88;100.00;-17125.47;5074005;28;20108;-84
2023/12/09 01:10:29;;;;;;;30.60;9.40;;;;;;;-148.88;100.00;-17125.47;5073808;28;20052;-84
2023/12/09 01:12:54;;;;;;;23.17;9.55;;;;;;;-148.88;100.00;-17125.47;5074266;28;20078;-86
2023/12/09 01:15:20;;;;;;;21.55;8.43;;;;;;;-148.88;100.00;-17125.47;5073770;28;20020;-87
2023/12/09 01:17:45;;;;;;;23.58;9.25;;;;;;;-148.88;100.00;-17125.47;5073599;28;20395;-86
2023/12/09 01:20:10;;;;;;;22.55;8.32;;;;;;;-148.88;100.00;-17125.47;5073629;28;20020;-87
2023/12/09 01:22:36;;;;;;;23.30;8.93;;;;;;;-148.88;100.00;-17125.47;5073532;28;20028;-86
2023/12/09 01:25:01;;;;;;;20.00;9.05;;;;;;;-148.88;100.00;-17125.47;5073255;28;20043;-86
2023/12/09 01:27:26;;;;;;;20.65;8.30;;;;;;;-148.88;100.00;-17125.47;5073550;28;20424;-85
2023/12/09 01:29:52;;;;;;;21.13;8.73;;;;;;;-148.88;100.00;-17125.47;5073207;28;20028;-86
2023/12/09 01:32:17;;;;;;;22.60;7.63;;;;;;;-148.88;100.00;-17125.47;5073687;28;20043;-85
2023/12/09 01:34:44;;;;;;;21.67;9.18;;;;;;;-148.88;100.00;-17125.47;5073414;28;20028;-85
2023/12/09 01:37:10;;;;;;;17.40;8.15;;;;;;;-148.88;100.00;-17125.47;5073339;28;20025;-86
2023/12/09 01:39:38;;;;;;;16.90;7.68;;;;;;;-148.88;100.00;-17125.47;5072169;28;20071;-87
2023/12/09 01:42:03;;;;;;;21.67;7.78;;;;;;;-148.88;100.00;-17125.47;5074568;28;20032;-86
2023/12/09 01:44:29;;;;;;;16.98;7.47;;;;;;;-148.88;100.00;-17125.47;5073217;28;20537;-87
2023/12/09 01:46:55;;;;;;;19.27;8.13;;;;;;;-148.88;100.00;-17125.47;5073882;28;20479;-86
2023/12/09 01:49:20;;;;;;;16.60;7.05;;;;;;;-148.88;100.00;-17125.47;5073208;28;20351;-86
2023/12/09 01:51:46;;;;;;;16.77;6.82;;;;;;;-148.88;100.00;-17125.47;5073298;28;20516;-86
2023/12/09 01:54:11;;;;;;;19.60;6.15;;;;;;;-148.88;100.00;-17125.47;5073393;28;20023;-86
2023/12/09 01:56:37;;;;;;;49.22;9.30;;;;;;;-148.88;100.00;-17125.47;5073287;28;20025;-86
2023/12/09 01:59:03;;;;;;;21.65;7.65;;;;;;;-148.88;100.00;-17125.47;5073097;28;20028;-86
2023/12/09 02:01:30;;;;;;;15.88;6.45;;;;;;;-148.88;100.00;-17125.47;5073171;28;20028;-86
2023/12/09 02:03:56;;;;;;;16.60;6.07;;;;;;;-148.88;100.00;-17125.47;5073559;28;20432;-86
2023/12/09 02:06:21;;;;;;;16.60;6.45;;;;;;;-148.88;100.00;-17125.47;5073499;28;20158;-86
2023/12/09 02:08:46;;;;;;;14.48;6.43;;;;;;;-148.88;100.00;-17125.47;5072879;28;20032;-86
2023/12/09 02:11:25;;;;;;;14.32;6.15;;;;;;;-148.88;100.00;-17125.47;5073366;28;20029;-86
2023/12/09 02:13:53;;;;;;;20.02;5.82;;;;;;;-148.88;100.00;-17125.47;5073219;28;20047;-86
2023/12/09 02:16:46;;;;;;;20.92;5.85;;;;;;;-148.88;100.00;-17125.47;5073182;28;20391;-85
2023/12/09 02:19:16;;;;;;;13.50;5.72;;;;;;;-148.88;100.00;-17125.47;5073199;28;20044;-84
2023/12/09 02:22:05;;;;;;;14.63;6.28;;;;;;;-148.88;100.00;-17125.47;5073090;28;20023;-85
2023/12/09 02:24:31;;;;;;;18.00;5.40;;;;;;;-148.88;100.00;-17125.47;5073348;28;20078;-85
2023/12/09 02:27:09;;;;;;;17.80;6.10;;;;;;;-148.88;100.00;-17125.47;5072925;28;20040;-85
2023/12/09 02:29:45;;;;;;;16.65;6.82;;;;;;;-148.88;100.00;-17125.47;5073017;28;20024;-85
2023/12/09 02:32:14;;;;;;;16.90;7.25;;;;;;;-148.88;100.00;-17125.47;5073026;28;20039;-86
2023/12/09 02:34:40;;;;;;;21.70;5.78;;;;;;;-148.88;100.00;-17125.47;5072916;28;20077;-86
2023/12/09 02:37:08;;;;;;;11.90;6.00;;;;;;;-148.88;100.00;-17125.47;5074011;28;20031;-85
2023/12/09 02:39:33;;;;;;;17.15;5.47;;;;;;;-148.88;100.00;-17125.47;5076709;28;20028;-85
2023/12/09 02:41:59;;;;;;;18.80;5.97;;;;;;;-148.88;100.00;-17125.47;5077128;28;20028;-85
2023/12/09 02:44:25;;;;;;;14.10;5.70;;;;;;;-148.88;100.00;-17125.47;5077331;28;20531;-86
2023/12/09 02:46:57;;;;;;;17.77;7.10;;;;;;;-148.88;100.00;-17125.47;5077269;28;20486;-86
2023/12/09 02:49:23;;;;;;;14.77;5.43;;;;;;;-148.88;100.00;-17125.47;5086040;28;20064;-86
2023/12/09 02:51:48;;;;;;;17.73;6.78;;;;;;;-148.88;100.00;-17125.47;5076930;28;20020;-87
2023/12/09 02:54:14;;;;;;;14.80;6.00;;;;;;;-148.88;100.00;-17125.47;5076277;28;20040;-88
2023/12/09 02:56:39;;;;;;;13.40;5.22;;;;;;;-148.88;100.00;-17125.47;5076180;28;20047;-87
2023/12/09 02:59:04;;;;;;;16.75;5.85;;;;;;;-148.88;100.00;-17125.47;5076090;28;20052;-86
2023/12/09 03:01:30;;;;;;;17.17;6.38;;;;;;;-148.88;100.00;-17125.47;5074897;28;20024;-87
2023/12/09 03:03:55;;;;;;;12.82;5.45;;;;;;;-148.88;100.00;-17125.47;5075967;28;20116;-87
2023/12/09 03:06:20;;;;;;;13.60;5.80;;;;;;;-148.88;100.00;-17125.47;5076188;28;20027;-85
2023/12/09 03:08:46;;;;;;;19.58;5.57;;;;;;;-148.88;100.00;-17125.47;5074465;28;20487;-85
2023/12/09 03:11:11;;;;;;;12.98;5.20;;;;;;;-148.88;100.00;-17125.47;5076309;28;20104;-85
2023/12/09 03:13:36;;;;;;;11.02;5.35;;;;;;;-148.88;100.00;-17125.47;5076145;28;20047;-86
2023/12/09 03:16:02;;;;;;;17.00;5.30;;;;;;;-148.88;100.00;-17125.47;5076125;28;20028;-86
2023/12/09 03:18:27;;;;;;;16.83;7.10;;;;;;;-148.88;100.00;-17125.47;5075890;28;20017;-85
2023/12/09 03:20:53;;;;;;;16.05;5.43;;;;;;;-148.88;100.00;-17125.47;5074582;28;20111;-85
2023/12/09 03:23:18;;;;;;;11.85;4.63;;;;;;;-148.88;100.00;-17125.47;5077104;28;20036;-86
2023/12/09 03:25:43;;;;;;;15.23;5.45;;;;;;;-148.88;100.00;-17125.47;5075560;28;20052;-86
2023/12/09 03:28:08;;;;;;;11.82;4.82;;;;;;;-148.88;100.00;-17125.47;5075480;28;20399;-85
2023/12/09 03:30:34;;;;;;;15.13;5.57;;;;;;;-148.88;100.00;-17125.47;5075521;28;20537;-85
2023/12/09 03:32:59;;;;;;;13.02;5.05;;;;;;;-148.88;100.00;-17125.47;5075220;28;20067;-86
2023/12/09 03:35:25;;;;;;;14.93;4.82;;;;;;;-148.88;100.00;-17125.47;5074173;28;20027;-84
2023/12/09 03:37:50;;;;;;;13.48;4.63;;;;;;;-148.88;100.00;-17125.47;5075165;28;20033;-85
2023/12/09 03:40:16;;;;;;;13.25;5.00;;;;;;;-148.88;100.00;-17125.47;5075237;28;20031;-85
2023/12/09 03:42:41;;;;;;;14.65;4.90;;;;;;;-148.88;100.00;-17125.47;5074128;28;20478;-85
2023/12/09 03:45:07;;;;;;;18.90;5.13;;;;;;;-148.88;100.00;-17125.47;5075151;28;20169;-86
2023/12/09 03:47:32;;;;;;;12.02;4.43;;;;;;;-148.88;100.00;-17125.47;5075255;28;20499;-85
2023/12/09 03:49:57;;;;;;;14.63;4.90;;;;;;;-148.88;100.00;-17125.47;5074036;28;20387;-85
2023/12/09 03:52:23;;;;;;;10.70;3.92;;;;;;;-148.88;100.00;-17125.47;5075448;28;20061;-86
2023/12/09 03:54:48;;;;;;;13.15;4.57;;;;;;;-148.88;100.00;-17125.47;5075396;28;20024;-85
2023/12/09 03:57:14;;;;;;;12.85;4.65;;;;;;;-148.88;100.00;-17125.47;5074123;28;20071;-86
2023/12/09 03:59:40;;;;;;;11.70;3.72;;;;;;;-148.88;100.00;-17125.47;5075679;28;20498;-85
2023/12/09 04:02:06;;;;;;;12.25;4.25;;;;;;;-148.88;100.00;-17125.47;5074123;28;20034;-84
2023/12/09 04:04:31;;;;;;;9.68;4.15;;;;;;;-148.88;100.00;-17125.47;5075219;28;20020;-85
2023/12/09 04:06:57;;;;;;;12.50;4.15;;;;;;;-148.88;100.00;-17125.47;5075291;28;20071;-85
2023/12/09 04:09:22;;;;;;;12.40;3.97;;;;;;;-148.88;100.00;-17125.47;5075049;28;20028;-84
2023/12/09 04:11:48;;;;;;;15.82;5.20;;;;;;;-148.88;100.00;-17125.47;5075219;28;20029;-85
2023/12/09 04:14:14;;;;;;;12.95;4.45;;;;;;;-148.88;100.00;-17125.47;5074932;28;20100;-85
2023/12/09 04:16:42;;;;;;;11.73;3.95;;;;;;;-148.88;100.00;-17125.47;5075209;28;20091;-85
2023/12/09 04:19:07;;;;;;;16.00;4.05;;;;;;;-148.88;100.00;-17125.47;5075156;28;20033;-86
2023/12/09 04:21:33;;;;;;;13.93;4.13;;;;;;;-148.88;100.00;-17125.47;5075100;28;20095;-85
2023/12/09 04:23:58;;;;;;;12.48;4.18;;;;;;;-148.88;100.00;-17125.47;5074284;28;20479;-85
2023/12/09 04:26:25;;;;;;;15.90;4.15;;;;;;;-148.88;100.00;-17125.47;5075242;28;20029;-85
2023/12/09 04:28:50;;;;;;;9.85;3.58;;;;;;;-148.88;100.00;-17125.47;5073921;28;20027;-85
2023/12/09 04:31:16;;;;;;;11.15;3.63;;;;;;;-148.88;100.00;-17125.47;5075499;28;20021;-85
2023/12/09 04:33:44;;;;;;;14.48;4.03;;;;;;;-148.88;100.00;-17125.47;5075266;28;20062;-85
2023/12/09 04:36:10;;;;;;;10.48;4.10;;;;;;;-148.88;100.00;-17125.47;5074544;28;20025;-85
2023/12/09 04:38:36;;;;;;;9.70;4.07;;;;;;;-148.88;100.00;-17125.47;5074415;28;20036;-85
2023/12/09 04:41:01;;;;;;;10.98;3.33;;;;;;;-148.88;100.00;-17125.47;5074533;28;20029;-86
2023/12/09 04:43:27;;;;;;;15.18;3.70;;;;;;;-148.88;100.00;-17125.47;5074680;28;20028;-85
2023/12/09 04:45:52;;;;;;;12.82;3.88;;;;;;;-148.88;100.00;-17125.47;5074154;28;20028;-85
2023/12/09 04:48:18;;;;;;;7.60;2.97;;;;;;;-148.88;100.00;-17125.47;5074198;28;20020;-86
2023/12/09 04:50:44;;;;;;;10.52;3.33;;;;;;;-148.88;100.00;-17125.47;5073052;28;20116;-85
2023/12/09 04:53:12;;;;;;;17.80;4.50;;;;;;;-148.88;100.00;-17125.47;5074695;28;20069;-85
2023/12/09 04:55:38;;;;;;;9.02;3.28;;;;;;;-148.88;100.00;-17125.47;5074388;28;20505;-85
2023/12/09 04:58:03;;;;;;;11.57;3.58;;;;;;;-148.88;100.00;-17125.47;5073444;28;20115;-84
2023/12/09 05:00:28;;;;;;;22.33;4.70;;;;;;;-148.88;100.00;-17125.47;5072033;28;20024;-85
2023/12/09 05:02:54;;;;;;;16.08;3.75;;;;;;;-148.88;100.00;-17125.47;5072496;28;20028;-84
2023/12/09 05:05:19;;;;;;;15.68;4.63;;;;;;;-148.88;100.00;-17125.47;5074447;28;20023;-85
2023/12/09 05:07:45;;;;;;;13.85;4.05;;;;;;;-148.88;100.00;-17125.47;5074795;28;20032;-83
2023/12/09 05:10:12;;;;;;;8.85;4.00;;;;;;;-148.88;100.00;-17125.47;5073917;28;20055;-85
2023/12/09 05:12:41;;;;;;;10.93;3.35;;;;;;;-148.88;100.00;-17125.47;5073443;28;20028;-84
2023/12/09 05:15:07;;;;;;;9.93;3.72;;;;;;;-148.88;100.00;-17125.47;5072341;28;20016;-86
2023/12/09 05:17:32;;;;;;;11.07;3.40;;;;;;;-148.88;100.00;-17125.47;5072289;28;20052;-88
2023/12/09 05:19:58;;;;;;;10.02;3.42;;;;;;;-148.88;100.00;-17125.47;5073448;28;20091;-86
2023/12/09 05:22:24;;;;;;;11.40;3.83;;;;;;;-148.88;100.00;-17125.47;5071935;28;20033;-85
2023/12/09 05:24:50;;;;;;;9.13;3.30;;;;;;;-148.88;100.00;-17125.47;5072628;28;20506;-85
2023/12/09 05:27:16;;;;;;;12.45;3.22;;;;;;;-148.88;100.00;-17125.47;5073246;28;20048;-85
2023/12/09 05:29:43;;;;;;;8.90;2.95;;;;;;;-148.88;100.00;-17125.47;5072909;28;20109;-86
2023/12/09 05:32:08;;;;;;;12.48;4.18;;;;;;;-148.88;100.00;-17125.47;5073649;28;20031;-84
2023/12/09 05:34:34;;;;;;;11.48;4.57;;;;;;;-148.88;100.00;-17125.47;5073353;28;20017;-83
2023/12/09 05:36:59;;;;;;;12.52;4.25;;;;;;;-148.88;100.00;-17125.47;5073408;28;20078;-86
2023/12/09 05:39:24;;;;;;;11.40;3.50;;;;;;;-148.88;100.00;-17125.47;5073855;28;20121;-85
2023/12/09 05:41:50;;;;;;;11.05;4.03;;;;;;;-148.88;100.00;-17125.47;5072302;28;20398;-86
2023/12/09 05:44:15;;;;;;;11.55;3.92;;;;;;;-148.88;100.00;-17125.47;5073168;28;20135;-86
2023/12/09 05:46:41;;;;;;;18.45;3.35;;;;;;;-148.88;100.00;-17125.47;5073551;28;20020;-86
2023/12/09 05:49:06;;;;;;;8.40;3.22;;;;;;;-148.88;100.00;-17125.47;5071970;28;20436;-87
2023/12/09 05:51:31;;;;;;;31.20;10.15;;;;;;;-148.88;100.00;-17125.47;5072883;28;20024;-86
2023/12/09 05:53:57;;;;;;;17.50;4.40;;;;;;;-148.88;100.00;-17125.47;5072960;28;20024;-85
2023/12/09 05:56:22;;;;;;;14.00;4.25;;;;;;;-148.88;100.00;-17125.47;5073149;28;20020;-86
2023/12/09 05:58:48;;;;;;;9.15;3.63;;;;;;;-148.88;100.00;-17125.47;5071258;28;20502;-84
2023/12/09 06:01:13;;;;;;;11.93;4.50;;;;;;;-148.88;100.00;-17125.47;5073205;28;20024;-85
2023/12/09 06:03:39;;;;;;;15.98;5.30;;;;;;;-148.88;100.00;-17125.47;5072846;28;20372;-85
2023/12/09 06:06:08;;;;;;;14.60;4.05;;;;;;;-148.88;100.00;-17125.47;5071613;28;20052;-85
2023/12/09 06:08:33;;;;;;;13.52;4.28;;;;;;;-148.88;100.00;-17125.47;5072804;28;20025;-86
2023/12/09 06:10:59;;;;;;;15.40;6.05;;;;;;;-148.88;100.00;-17125.47;5073416;28;20074;-85
2023/12/09 06:13:24;;;;;;;17.23;6.80;;;;;;;-148.88;100.00;-17125.47;5076517;28;20102;-86
2023/12/09 06:15:50;;;;;;;15.85;5.68;;;;;;;-148.88;100.00;-17125.47;5077311;28;20099;-87
2023/12/09 06:18:15;;;;;;;14.43;4.85;;;;;;;-148.88;100.00;-17125.47;5078615;28;20024;-89
2023/12/09 06:20:40;;;;;;;13.07;4.57;;;;;;;-148.88;100.00;-17125.47;5076089;28;20033;-88
2023/12/09 06:23:06;;;;;;;15.93;5.55;;;;;;;-148.88;100.00;-17125.47;5075588;28;20115;-88
2023/12/09 06:25:31;;;;;;;18.27;6.32;;;;;;;-148.88;100.00;-17125.47;5075630;28;20020;-88
2023/12/09 06:27:57;;;;;;;17.45;6.35;;;;;;;-148.88;100.00;-17125.47;5076622;28;20016;-89
2023/12/09 06:30:22;;;;;;;13.63;3.78;;;;;;;-148.88;100.00;-17125.47;5075648;28;20021;-87
2023/12/09 06:32:48;;;;;;;10.10;3.40;;;;;;;-148.88;100.00;-17125.47;5077046;28;20028;-86
2023/12/09 06:35:13;;;;;;;9.52;3.65;;;;;;;-148.88;100.00;-17125.47;5076652;28;20016;-85
2023/12/09 06:37:39;;;;;;;13.02;3.72;;;;;;;-148.88;100.00;-17125.47;5076453;28;20020;-88
2023/12/09 06:40:07;;;;;;;11.35;3.95;;;;;;;-148.88;100.00;-17125.47;5077063;28;20052;-85
2023/12/09 06:42:33;;;;;;;15.10;4.32;;;;;;;-148.88;100.00;-17125.47;5075555;28;20062;-87
2023/12/09 06:45:01;;;;;;;15.50;3.65;;;;;;;-148.88;100.00;-17125.47;5076262;28;20048;-86
2023/12/09 06:47:27;;;;;;;11.00;4.13;;;;;;;-148.88;100.00;-17125.47;5076424;28;20027;-88
2023/12/09 06:50:02;;;;;;;13.80;4.13;;;;;;;-148.88;100.00;-17125.47;5075315;28;20024;-87
2023/12/09 06:52:27;;;;;;;9.05;3.58;;;;;;;-148.88;100.00;-17125.47;5076233;28;20016;-86
2023/12/09 06:54:52;;;;;;;9.75;4.03;;;;;;;-148.88;100.00;-17125.47;5075343;28;20027;-87
2023/12/09 06:57:18;;;;;;;8.80;3.45;;;;;;;-148.88;100.00;-17125.47;5075965;28;20532;-86
2023/12/09 06:59:43;;;;;;;13.35;4.10;;;;;;;-148.88;100.00;-17125.47;5075989;28;20024;-87
2023/12/09 07:02:09;;;;;;;9.25;3.40;;;;;;;-148.88;100.00;-17125.47;5074995;28;20024;-86
2023/12/09 07:04:40;;;;;;;12.52;3.80;;;;;;;-148.88;100.00;-17125.47;5074468;28;20031;-86
2023/12/09 07:07:06;;;;;;;15.68;4.47;;;;;;;-148.88;100.00;-17125.47;5074963;28;20058;-87
2023/12/09 07:09:32;;;;;;;12.13;3.75;;;;;;;-148.88;100.00;-17125.47;5075900;28;20429;-84
2023/12/09 07:12:03;;;;;;;12.98;4.05;;;;;;;-148.88;100.00;-17125.47;5075041;28;20024;-87
2023/12/09 07:14:31;;;;;;;10.80;3.60;;;;;;;-148.88;100.00;-17125.47;5075554;28;20032;-88
2023/12/09 07:16:57;;;;;;;9.95;3.75;;;;;;;-148.88;100.00;-17125.47;5074626;28;20031;-88
2023/12/09 07:19:22;;;;;;;9.90;3.53;;;;;;;-148.88;100.00;-17125.47;5075948;28;20032;-87
2023/12/09 07:21:48;;;;;;;11.45;3.58;;;;;;;-148.88;100.00;-17125.47;5075702;28;20025;-87
2023/12/09 07:24:13;;;;;;;14.85;4.40;;;;;;;-148.88;100.00;-17125.47;5075805;28;20029;-87
2023/12/09 07:26:38;;;;;;;8.65;3.08;;;;;;;-148.88;100.00;-17125.47;5076369;28;20047;-87
2023/12/09 07:29:05;;;;;;;9.38;3.60;;;;;;;-148.88;100.00;-17125.47;5076078;28;20016;-87
2023/12/09 07:31:32;;;;;;;11.13;4.38;;;;;;;-148.88;100.00;-17125.47;5075767;28;20024;-87
2023/12/09 07:33:57;;;;;;;16.85;3.95;;;;;;;-148.88;100.00;-17125.47;5074423;28;20039;-87
2023/12/09 07:36:22;;;;;;;15.10;4.13;;;;;;;-148.88;100.00;-17125.47;5074286;28;20028;-86
2023/12/09 07:38:48;;;;;;;9.52;3.28;;;;;;;-148.88;100.00;-17125.47;5075404;28;20025;-86
2023/12/09 07:41:14;;;;;;;12.10;3.30;;;;;;;-148.88;100.00;-17125.47;5075677;28;20032;-87
2023/12/09 07:43:39;;;;;;;11.25;3.03;;;;;;;-148.88;100.00;-17125.47;5075690;28;20025;-86
2023/12/09 07:46:05;;;;;;;5.93;2.65;;;;;;;-148.88;100.00;-17125.47;5074061;28;20052;-86
2023/12/09 07:48:31;;;;;;;13.75;3.58;;;;;;;-148.88;100.00;-17125.47;5075063;28;20024;-87
2023/12/09 07:50:56;;;;;;;11.68;3.15;;;;;;;-148.88;100.00;-17125.47;5075421;28;20024;-87
2023/12/09 07:53:21;;;;;;;10.88;2.63;;;;;;;-148.88;100.00;-17125.47;5075166;28;20021;-87
2023/12/09 07:55:47;;;;;;;11.48;3.05;;;;;;;-148.88;100.00;-17125.47;5075303;28;20495;-87
2023/12/09 07:58:12;;;;;;;10.20;2.85;;;;;;;-148.88;100.00;-17125.47;5075349;28;20387;-87
2023/12/09 08:00:37;;;;;;;9.07;2.72;;;;;;;-148.88;100.00;-17125.47;5075680;28;20024;-86
2023/12/09 08:03:04;;;;;;;9.60;3.33;;;;;;;-148.88;100.00;-17125.47;5075423;28;20048;-87
2023/12/09 08:05:34;;;;;;;10.93;2.72;;;;;;;-148.88;100.00;-17125.47;5075126;28;20065;-88
2023/12/09 08:08:01;;;;;;;8.18;2.72;;;;;;;-148.88;100.00;-17125.47;5075213;28;20100;-85
2023/12/09 08:10:27;;;;;;;12.05;3.05;;;;;;;-148.88;100.00;-17125.47;5074171;28;20024;-86
2023/12/09 08:12:52;;;;;;;9.95;3.25;;;;;;;-148.88;100.00;-17125.47;5073836;28;20115;-85
2023/12/09 08:15:18;;;;;;;6.82;2.70;;;;;;;-148.88;100.00;-17125.47;5075406;28;20020;-85
2023/12/09 08:17:44;;;;;;;12.43;3.10;;;;;;;-148.88;100.00;-17125.47;5075037;28;20090;-87
2023/12/09 08:20:11;;;;;;;7.45;2.85;;;;;;;-148.88;100.00;-17125.47;5074656;28;20081;-88
2023/12/09 08:22:38;;;;;;;6.60;2.83;;;;;;;-148.88;100.00;-17125.47;5073769;28;20119;-87
2023/12/09 08:25:05;;;;;;;6.78;2.33;;;;;;;-148.88;100.00;-17125.47;5073660;28;20517;-87
2023/12/09 08:27:30;;;;;;;11.07;2.83;;;;;;;-148.88;100.00;-17125.47;5074365;28;20491;-87
2023/12/09 08:29:56;;;;;;;5.72;2.40;;;;;;;-148.88;100.00;-17125.47;5074290;28;20035;-87
2023/12/09 08:32:21;;;;;;;9.18;2.90;;;;;;;-148.88;100.00;-17125.47;5073567;28;20119;-86
2023/12/09 08:34:46;;;;;;;6.05;2.47;;;;;;;-148.88;100.00;-17125.47;5072778;28;20020;-89
2023/12/09 08:37:25;;;;;;;7.88;3.50;;;;;;;-148.88;100.00;-17125.47;5075069;28;20071;-87
2023/12/09 08:39:54;;;;;;;10.65;2.80;;;;;;;-148.88;100.00;-17125.47;5073181;28;20024;-86
2023/12/09 08:42:20;;;;;;;7.00;2.53;;;;;;;-148.88;100.00;-17125.47;5073157;28;20051;-86
2023/12/09 08:44:45;;;;;;;10.00;2.38;;;;;;;-148.88;100.00;-17125.47;5072902;28;20052;-87
2023/12/09 08:47:10;;;;;;;8.23;2.83;;;;;;;-148.88;100.00;-17125.47;5074089;28;20029;-87
2023/12/09 08:49:36;;;;;;;8.23;2.97;;;;;;;-148.88;100.00;-17125.47;5073122;28;20028;-86
2023/12/09 08:52:01;;;;;;;6.63;2.75;;;;;;;-148.88;100.00;-17125.47;5072684;28;20115;-86
2023/12/09 08:54:26;;;;;;;9.15;2.65;;;;;;;-148.88;100.00;-17125.47;5073935;28;20020;-89
2023/12/09 08:56:52;;;;;;;8.35;3.22;;;;;;;-148.88;100.00;-17125.47;5073991;28;20030;-88
2023/12/09 08:59:17;;;;;;;12.10;3.38;;;;;;;-148.88;100.00;-17125.47;5073959;28;20035;-87
2023/12/09 09:01:45;;;;;;;6.90;3.17;;;;;;;-148.88;100.00;-17125.47;5074060;28;20025;-89
2023/12/09 09:04:10;;;;;;;7.90;3.15;;;;;;;-148.88;100.00;-17125.47;5072524;28;20081;-85
2023/12/09 09:06:36;;;;;;;10.20;3.20;;;;;;;-148.88;100.00;-17125.47;5073050;28;20068;-88
2023/12/09 09:09:01;;;;;;;7.68;2.72;;;;;;;-148.88;100.00;-17125.47;5074551;28;20032;-83
2023/12/09 09:11:26;;;;;;;8.50;2.80;;;;;;;-148.88;100.00;-17125.47;5074000;28;20403;-83
2023/12/09 09:13:52;;;;;;;9.63;2.55;;;;;;;-148.88;100.00;-17125.47;5075009;28;20467;-84
2023/12/09 09:16:17;;;;;;;8.98;2.67;;;;;;;-148.88;100.00;-17125.47;5072816;28;20158;-85
2023/12/09 09:18:43;;;;;;;6.57;2.45;;;;;;;-148.88;100.00;-17125.47;5072290;28;20506;-87
2023/12/09 09:21:09;;;;;;;8.63;2.97;;;;;;;-148.88;100.00;-17125.47;5072694;28;20028;-87
2023/12/09 09:23:40;;;;;;;8.07;3.60;;;;;;;-148.88;100.00;-17125.47;5072092;28;20036;-87
2023/12/09 09:26:24;;;;;;;9.55;3.15;;;;;;;-148.88;100.00;-17125.47;5072572;28;20051;-85
2023/12/09 09:28:49;;;;;;;7.63;2.78;;;;;;;-148.88;100.00;-17125.47;5072774;28;20034;-86
2023/12/09 09:31:14;;;;;;;3.80;2.45;;;;;;;-148.88;100.00;-17125.47;5072503;28;20115;-86
2023/12/09 09:33:43;;;;;;;4.75;2.13;;;;;;;-148.88;100.00;-17125.47;5072901;28;20386;-85
2023/12/09 09:36:09;;;;;;;9.50;2.83;;;;;;;-148.88;100.00;-17125.47;5072520;28;20024;-84
2023/12/09 09:38:34;;;;;;;6.05;3.08;;;;;;;-148.88;100.00;-17125.47;5073727;28;20024;-86
2023/12/09 09:41:06;;;;;;;6.45;2.88;;;;;;;-148.88;100.00;-17125.47;5072677;28;20031;-85
2023/12/09 09:43:39;;;;;;;6.57;2.20;;;;;;;-148.88;100.00;-17125.47;5072913;28;20032;-85
2023/12/09 09:46:21;;;;;;;8.48;3.90;;;;;;;-148.88;100.00;-17125.47;5073850;28;20028;-86
2023/12/09 09:48:50;;;;;;;5.63;3.17;;;;;;;-148.88;100.00;-17125.47;5072735;28;20020;-87
2023/12/09 09:51:26;;;;;;;12.85;3.60;;;;;;;-148.88;100.00;-17125.47;5073399;28;20395;-84
2023/12/09 09:54:12;;;;;;;6.78;3.60;;;;;;;-148.88;100.00;-17125.47;5073497;28;20021;-85
2023/12/09 09:56:42;;;;;;;10.07;3.42;;;;;;;-148.88;100.00;-17125.47;5072657;28;20052;-86
2023/12/09 09:59:20;;;;;;;11.48;4.10;;;;;;;-148.88;100.00;-17125.47;5071936;28;20191;-87
2023/12/09 10:01:55;;;;;;;7.53;3.63;;;;;;;-148.88;100.00;-17125.47;5071572;28;20120;-86
2023/12/09 10:04:29;;;;;;;11.88;3.80;;;;;;;-148.88;100.00;-17125.47;5073717;28;20479;-88
2023/12/09 10:06:57;;;;;;;10.25;3.78;;;;;;;-148.88;100.00;-17125.47;5072608;28;20090;-85
2023/12/09 10:09:23;;;;;;;11.10;3.97;;;;;;;-148.88;100.00;-17125.47;5073129;28;20046;-85
2023/12/09 10:11:49;;;;;;;6.95;3.58;;;;;;;-148.88;100.00;-17125.47;5072956;28;20108;-85
2023/12/09 10:14:17;;;;;;;10.73;4.50;;;;;;;-148.88;100.00;-17125.47;5072539;28;20054;-89
2023/12/09 10:16:47;;;;;;;10.57;3.70;;;;;;;-148.88;100.00;-17125.47;5072968;28;20067;-84
2023/12/09 10:19:17;;;;;;;7.43;3.92;;;;;;;-148.88;100.00;-17125.47;5073154;28;20021;-86
2023/12/09 10:22:00;;;;;;;7.95;3.33;;;;;;;-148.88;100.00;-17125.47;5074034;28;20391;-85
2023/12/09 10:24:25;;;;;;;7.05;3.22;;;;;;;-148.88;100.00;-17125.47;5073238;28;20472;-84
2023/12/09 10:26:51;;;;;;;8.20;3.10;;;;;;;-148.88;100.00;-17125.47;5072933;28;20039;-85
2023/12/09 10:29:17;;;;;;;8.32;3.67;;;;;;;-148.88;100.00;-17125.47;5071880;28;20472;-86
2023/12/09 10:31:42;;;;;;;7.45;3.28;;;;;;;-148.88;100.00;-17125.47;5073289;28;20033;-85
2023/12/09 10:34:11;;;;;;;7.90;2.88;;;;;;;-148.88;100.00;-17125.47;5072636;28;20021;-86
2023/12/09 10:36:36;;;;;;;9.65;3.03;;;;;;;-148.88;100.00;-17125.47;5072629;28;20395;-85
2023/12/09 10:39:05;;;;;;;5.47;2.85;;;;;;;-148.88;100.00;-17125.47;5073003;28;20108;-85
2023/12/09 10:41:30;;;;;;;11.98;3.97;;;;;;;-148.88;100.00;-17125.47;5072777;28;20029;-85
2023/12/09 10:43:56;;;;;;;9.38;3.25;;;;;;;-148.88;100.00;-17125.47;5072748;28;20028;-85
2023/12/09 10:46:30;;;;;;;8.50;2.90;;;;;;;-148.88;100.00;-17125.47;5072279;28;20021;-86
2023/12/09 10:48:55;;;;;;;;;;;;;;;-148.88;100.00;-17125.47;5072191;28;20111;-86
2023/12/09 10:51:23;;;;;;;6.10;2.80;;;;;;;-148.88;100.00;-17125.47;5071463;28;19936;-85